createdAt,value
2018-11-22T00:01:10.138Z,18.20
2018-11-22T00:03:40.447Z,18.87
2018-11-22T00:06:10.387Z,20.07
2018-11-22T00:08:43.126Z,20.40
2018-11-22T00:11:13.116Z,18.67
2018-11-22T00:13:43.124Z,20.67
2018-11-22T00:16:13.091Z,20.83
2018-11-22T00:18:43.050Z,19.77
2018-11-22T00:21:13.034Z,19.20
2018-11-22T00:23:43.054Z,18.60
2018-11-22T00:26:13.057Z,17.53
2018-11-22T00:28:44.038Z,18.30
2018-11-22T00:31:13.999Z,20.30
2018-11-22T00:33:43.971Z,18.43
2018-11-22T00:36:13.928Z,17.57
2018-11-22T00:38:43.920Z,15.87
2018-11-22T00:41:14.015Z,18.07
2018-11-22T00:43:47.593Z,20.90
2018-11-22T00:46:17.567Z,16.00
2018-11-22T00:48:47.501Z,18.77
2018-11-22T00:51:17.795Z,18.87
2018-11-22T00:53:47.771Z,18.80
2018-11-22T00:56:18.439Z,16.37
2018-11-22T00:58:48.394Z,19.17
2018-11-22T01:01:18.335Z,17.80
2018-11-22T01:03:48.373Z,16.00
2018-11-22T01:06:27.567Z,17.37
2018-11-22T01:08:57.554Z,17.30
2018-11-22T01:11:27.482Z,17.37
2018-11-22T01:14:04.265Z,19.23
2018-11-22T01:16:34.208Z,15.93
2018-11-22T01:19:10.173Z,15.90
2018-11-22T01:21:40.359Z,23.47
2018-11-22T01:24:10.313Z,15.90
2018-11-22T01:26:40.344Z,13.97
2018-11-22T01:29:10.338Z,15.87
2018-11-22T01:31:49.990Z,17.03
2018-11-22T01:34:19.989Z,18.23
2018-11-22T01:36:49.955Z,15.67
2018-11-22T01:39:19.902Z,16.03
2018-11-22T01:41:49.874Z,17.50
2018-11-22T01:44:19.814Z,16.20
2018-11-22T01:46:49.746Z,17.10
2018-11-22T01:49:19.835Z,16.53
2018-11-22T01:51:49.777Z,18.10
2018-11-22T01:54:19.811Z,19.10
2018-11-22T01:56:49.877Z,17.17
2018-11-22T01:59:19.850Z,16.47
2018-11-22T02:01:52.896Z,19.20
2018-11-22T02:04:25.253Z,17.20
2018-11-22T02:07:03.964Z,16.77
2018-11-22T02:09:38.820Z,17.13
2018-11-22T02:12:08.799Z,16.00
2018-11-22T02:14:38.761Z,14.90
2018-11-22T02:17:08.721Z,17.70
2018-11-22T02:19:38.666Z,17.47
2018-11-22T02:22:08.613Z,16.97
2018-11-22T02:24:38.583Z,18.57
2018-11-22T02:27:08.763Z,19.90
2018-11-22T02:29:38.781Z,18.00
2018-11-22T02:32:08.763Z,17.30
2018-11-22T02:34:38.735Z,15.90
2018-11-22T02:37:08.699Z,19.07
2018-11-22T02:39:38.647Z,20.20
2018-11-22T02:42:08.603Z,17.47
2018-11-22T02:44:38.904Z,17.67
2018-11-22T02:47:08.874Z,21.23
2018-11-22T02:49:38.817Z,17.03
2018-11-22T02:52:08.781Z,17.37
2018-11-22T02:54:39.183Z,19.03
2018-11-22T02:57:11.450Z,19.40
2018-11-22T02:59:41.445Z,18.23
2018-11-22T03:02:11.434Z,16.97
2018-11-22T03:04:41.429Z,18.20
2018-11-22T03:07:11.521Z,20.17
2018-11-22T03:09:43.677Z,18.20
2018-11-22T03:12:13.807Z,20.57
2018-11-22T03:14:43.831Z,20.13
2018-11-22T03:17:13.839Z,19.30
2018-11-22T03:19:43.888Z,18.70
2018-11-22T03:22:13.869Z,23.50
2018-11-22T03:24:43.922Z,20.53
2018-11-22T03:27:13.861Z,25.73
2018-11-22T03:29:43.802Z,20.60
2018-11-22T03:32:13.754Z,20.83
2018-11-22T03:34:43.704Z,18.93
2018-11-22T03:37:13.663Z,20.33
2018-11-22T03:39:43.666Z,21.30
2018-11-22T03:42:14.661Z,23.97
2018-11-22T03:44:44.640Z,20.57
2018-11-22T03:47:14.683Z,19.53
2018-11-22T03:49:44.641Z,23.07
2018-11-22T03:52:14.583Z,20.93
2018-11-22T03:54:44.548Z,21.90
2018-11-22T03:57:14.499Z,25.33
2018-11-22T03:59:46.472Z,21.67
2018-11-22T04:02:16.448Z,18.73
2018-11-22T04:04:46.452Z,20.80
2018-11-22T04:07:16.392Z,23.87
2018-11-22T04:09:46.357Z,22.40
2018-11-22T04:12:16.327Z,21.90
2018-11-22T04:14:46.292Z,22.30
2018-11-22T04:17:16.288Z,22.90
2018-11-22T04:19:46.283Z,22.30
2018-11-22T04:22:19.257Z,20.97
2018-11-22T04:24:49.237Z,27.70
2018-11-22T04:27:19.271Z,21.10
2018-11-22T04:29:50.469Z,27.57
2018-11-22T04:32:22.984Z,23.70
2018-11-22T04:34:52.963Z,20.83
2018-11-22T04:37:22.925Z,24.80
2018-11-22T04:39:55.337Z,26.20
2018-11-22T04:42:25.283Z,26.90
2018-11-22T04:44:55.219Z,22.87
2018-11-22T04:47:25.130Z,22.47
2018-11-22T04:49:55.082Z,25.23
2018-11-22T04:52:24.995Z,21.77
2018-11-22T04:54:57.734Z,23.67
2018-11-22T04:57:28.100Z,23.60
2018-11-22T04:59:58.054Z,20.40
2018-11-22T05:02:28.066Z,21.23
2018-11-22T05:04:57.964Z,21.57
2018-11-22T05:07:27.907Z,23.70
2018-11-22T05:09:57.824Z,20.77
2018-11-22T05:12:27.769Z,20.17
2018-11-22T05:14:57.696Z,21.20
2018-11-22T05:17:27.661Z,22.67
2018-11-22T05:19:57.762Z,22.40
2018-11-22T05:22:27.714Z,21.80
2018-11-22T05:25:02.275Z,19.70
2018-11-22T05:27:32.217Z,19.47
2018-11-22T05:30:02.205Z,20.43
2018-11-22T05:32:35.352Z,23.03
2018-11-22T05:35:04.380Z,23.20
2018-11-22T05:37:36.548Z,27.13
2018-11-22T05:40:12.338Z,21.80
2018-11-22T05:42:43.328Z,24.67
2018-11-22T05:45:15.322Z,21.57
2018-11-22T05:47:46.077Z,24.43
2018-11-22T05:50:24.210Z,22.47
2018-11-22T05:52:55.377Z,22.27
2018-11-22T05:55:25.285Z,21.30
2018-11-22T05:57:55.341Z,23.47
2018-11-22T06:00:27.077Z,22.77
2018-11-22T06:02:57.814Z,21.30
2018-11-22T06:05:28.845Z,22.83
2018-11-22T06:07:58.881Z,22.93
2018-11-22T06:10:30.732Z,22.10
2018-11-22T06:13:09.842Z,24.40
2018-11-22T06:15:41.853Z,22.37
2018-11-22T06:18:11.883Z,24.20
2018-11-22T06:20:41.820Z,25.17
2018-11-22T06:23:14.117Z,26.10
2018-11-22T06:25:47.886Z,25.30
2018-11-22T06:28:17.888Z,26.23
2018-11-22T06:30:47.888Z,23.50
2018-11-22T06:33:17.833Z,28.60
2018-11-22T06:35:47.934Z,26.30
2018-11-22T06:38:26.241Z,26.00
2018-11-22T06:40:58.717Z,25.97
2018-11-22T06:43:28.675Z,24.97
2018-11-22T06:46:01.145Z,28.83
2018-11-22T06:48:41.543Z,25.47
2018-11-22T06:51:24.363Z,21.53
2018-11-22T06:53:57.154Z,22.53
2018-11-22T06:56:29.162Z,23.50
2018-11-22T06:59:03.629Z,24.07
2018-11-22T07:01:39.560Z,27.57
2018-11-22T07:04:09.521Z,25.73
2018-11-22T07:06:39.551Z,25.83
2018-11-22T07:09:15.065Z,25.70
2018-11-22T07:11:44.974Z,25.67
2018-11-22T07:14:14.909Z,25.67
2018-11-22T07:16:44.871Z,23.37
2018-11-22T07:19:14.795Z,25.57
2018-11-22T07:21:47.014Z,26.70
2018-11-22T07:24:17.077Z,24.73
2018-11-22T07:27:00.967Z,25.53
2018-11-22T07:29:45.244Z,25.97
2018-11-22T07:32:21.638Z,25.00
2018-11-22T07:34:51.620Z,21.97
2018-11-22T07:37:21.577Z,21.13
2018-11-22T07:39:54.129Z,26.47
2018-11-22T07:42:24.095Z,25.83
2018-11-22T07:44:54.164Z,28.97
2018-11-22T07:47:27.539Z,24.10
2018-11-22T07:50:01.650Z,24.53
2018-11-22T07:52:35.298Z,28.27
2018-11-22T07:55:05.952Z,24.67
2018-11-22T07:57:35.901Z,23.77
2018-11-22T08:00:08.280Z,24.00
2018-11-22T08:02:38.738Z,27.70
2018-11-22T08:05:12.660Z,23.03
2018-11-22T08:07:42.998Z,24.30
2018-11-22T08:10:15.020Z,25.17
2018-11-22T08:12:45.732Z,27.33
2018-11-22T08:15:19.901Z,28.87
2018-11-22T08:17:50.009Z,32.37
2018-11-22T08:20:21.228Z,24.87
2018-11-22T08:22:54.504Z,28.33
2018-11-22T08:25:29.482Z,22.60
2018-11-22T08:27:59.576Z,35.17
2018-11-22T08:30:29.524Z,24.93
2018-11-22T08:32:59.455Z,26.13
2018-11-22T08:35:29.469Z,23.53
2018-11-22T08:37:59.419Z,28.27
2018-11-22T08:40:30.634Z,30.20
2018-11-22T08:43:19.329Z,27.47
2018-11-22T08:45:52.113Z,25.40
2018-11-22T08:48:22.176Z,27.07
2018-11-22T08:50:56.913Z,29.43
2018-11-22T08:53:36.933Z,26.27
2018-11-22T08:56:00.226Z,25.23
2018-11-22T08:58:41.074Z,25.10
2018-11-22T09:01:21.125Z,36.00
2018-11-22T09:03:51.524Z,28.57
2018-11-22T09:06:21.491Z,32.83
2018-11-22T09:08:51.557Z,30.40
2018-11-22T09:11:21.538Z,28.47
2018-11-22T09:13:51.563Z,29.27
2018-11-22T09:16:21.700Z,27.63
2018-11-22T09:18:51.805Z,26.87
2018-11-22T09:21:21.779Z,26.60
2018-11-22T09:23:51.843Z,28.67
2018-11-22T09:26:25.533Z,26.23
2018-11-22T09:28:55.512Z,28.53
2018-11-22T09:31:26.371Z,27.40
2018-11-22T09:33:56.444Z,25.27
2018-11-22T09:36:26.593Z,24.73
2018-11-22T09:38:56.535Z,27.27
2018-11-22T09:41:29.100Z,25.57
2018-11-22T09:44:01.625Z,26.77
2018-11-22T09:46:31.655Z,23.57
2018-11-22T09:49:01.637Z,25.03
2018-11-22T09:51:32.717Z,26.03
2018-11-22T09:54:02.854Z,27.17
2018-11-22T09:56:33.024Z,26.20
2018-11-22T09:59:03.182Z,28.77
2018-11-22T10:01:36.089Z,28.33
2018-11-22T10:04:06.440Z,23.70
2018-11-22T10:06:39.003Z,26.60
2018-11-22T13:00:38.436Z,16.30
2018-11-22T19:41:56.320Z,27.97
